createdAt,value
2023-05-07T00:00:10.889Z,98609.63
2023-05-07T00:04:14.718Z,98620.84
2023-05-07T00:08:17.570Z,98617.63
2023-05-07T00:12:20.026Z,98624.56
2023-05-07T00:16:22.384Z,98619.25
2023-05-07T00:20:24.644Z,98614.41
2023-05-07T00:24:26.790Z,98612.25
2023-05-07T00:28:29.805Z,98618.13
2023-05-07T00:32:34.763Z,98612.00
2023-05-07T00:36:37.183Z,98608.81
2023-05-07T00:40:39.339Z,98609.91
2023-05-07T00:44:41.614Z,98610.97
2023-05-07T00:48:44.025Z,98612.03
2023-05-07T00:52:46.290Z,98618.44
2023-05-07T00:56:48.904Z,98622.44
2023-05-07T01:00:51.203Z,98627.78
2023-05-07T01:04:56.727Z,98625.66
2023-05-07T01:09:06.850Z,98627.00
2023-05-07T01:13:13.561Z,98624.31
2023-05-07T01:17:16.019Z,98619.25
2023-05-07T01:21:19.397Z,98617.34
2023-05-07T01:25:21.983Z,98624.78
2023-05-07T01:29:28.716Z,98619.19
2023-05-07T01:33:34.707Z,98618.94
2023-05-07T01:37:37.138Z,98623.75
2023-05-07T01:41:39.408Z,98628.81
2023-05-07T01:45:42.487Z,98634.41
2023-05-07T01:49:44.937Z,98632.53
2023-05-07T01:53:51.760Z,98635.72
2023-05-07T01:57:54.956Z,98632.50
2023-05-07T02:01:57.157Z,98630.06
2023-05-07T02:05:59.417Z,98625.72
2023-05-07T02:10:11.501Z,98630.25
2023-05-07T02:14:14.872Z,98631.56
2023-05-07T02:18:18.054Z,98633.97
2023-05-07T02:22:20.367Z,98629.84
2023-05-07T02:26:22.707Z,98624.22
2023-05-07T02:30:26.315Z,98630.72
2023-05-07T02:34:30.691Z,98631.66
2023-05-07T02:38:32.805Z,98630.13
2023-05-07T02:42:35.120Z,98630.72
2023-05-07T02:46:37.788Z,98630.19
2023-05-07T02:50:44.314Z,98624.38
2023-05-07T02:54:49.958Z,98624.91
2023-05-07T02:58:52.096Z,98621.44
2023-05-07T03:02:57.216Z,98620.47
2023-05-07T03:07:00.048Z,98617.34
2023-05-07T03:11:02.287Z,98627.22
2023-05-07T03:15:04.888Z,98608.81
2023-05-07T03:19:07.439Z,98618.84
2023-05-07T03:23:09.641Z,98622.31
2023-05-07T03:27:12.194Z,98614.91
2023-05-07T03:31:14.863Z,98607.75
2023-05-07T03:35:17.926Z,98610.16
2023-05-07T03:39:20.134Z,98610.16
2023-05-07T03:43:22.312Z,98609.38
2023-05-07T03:47:31.510Z,98606.50
2023-05-07T03:51:34.097Z,98612.84
2023-05-07T03:55:36.724Z,98606.94
2023-05-07T03:59:38.890Z,98619.59
2023-05-07T04:03:43.684Z,98620.63
2023-05-07T04:07:45.893Z,98628.50
2023-05-07T04:11:50.939Z,98628.81
2023-05-07T04:15:54.356Z,98629.00
2023-05-07T04:19:56.685Z,98628.88
2023-05-07T04:23:58.880Z,98634.75
2023-05-07T04:28:01.233Z,98628.00
2023-05-07T04:32:05.526Z,98627.53
2023-05-07T04:36:08.155Z,98632.16
2023-05-07T04:40:17.045Z,98642.13
2023-05-07T04:44:20.007Z,98650.28
2023-05-07T04:48:23.587Z,98651.94
2023-05-07T04:52:27.846Z,98656.25
2023-05-07T04:56:33.875Z,98657.91
2023-05-07T05:00:37.058Z,98661.19
2023-05-07T05:04:41.488Z,98670.59
2023-05-07T05:08:44.119Z,98672.22
2023-05-07T05:12:46.475Z,98672.22
2023-05-07T05:16:48.879Z,98664.81
2023-05-07T05:20:52.714Z,98669.09
2023-05-07T05:24:55.503Z,98666.44
2023-05-07T05:28:57.943Z,98666.19
2023-05-07T05:33:02.429Z,98661.91
2023-05-07T05:37:04.896Z,98661.38
2023-05-07T05:41:07.094Z,98663.19
2023-05-07T05:45:09.996Z,98664.53
2023-05-07T05:49:12.630Z,98668.50
2023-05-07T05:53:16.444Z,98667.13
2023-05-07T05:57:19.728Z,98670.28
2023-05-07T06:01:21.904Z,98664.28
2023-05-07T06:05:26.637Z,98673.03
2023-05-07T06:09:35.922Z,98676.59
2023-05-07T06:18:28.885Z,98669.56
2023-05-07T06:28:04.755Z,98669.53
2023-05-07T06:32:29.804Z,98677.06
2023-05-07T06:36:42.634Z,98670.66
2023-05-07T06:41:12.348Z,98670.59
2023-05-07T06:45:22.052Z,98668.94
2023-05-07T06:49:27.675Z,98663.25
2023-05-07T06:53:47.456Z,98655.97
2023-05-07T06:57:54.234Z,98661.69
2023-05-07T07:02:04.820Z,98656.84
2023-05-07T07:06:08.503Z,98660.25
2023-05-07T07:10:13.150Z,98655.84
2023-05-07T07:14:19.272Z,98654.44
2023-05-07T07:18:27.244Z,98651.94
2023-05-07T07:22:35.867Z,98654.97
2023-05-07T07:26:41.462Z,98644.34
2023-05-07T07:30:44.612Z,98652.94
2023-05-07T07:34:47.732Z,98643.34
2023-05-07T07:38:49.931Z,98645.25
2023-05-07T07:42:54.287Z,98649.19
2023-05-07T07:46:56.695Z,98654.13
2023-05-07T07:51:01.767Z,98650.56
2023-05-07T07:55:05.798Z,98645.53
2023-05-07T07:59:08.806Z,98650.53
2023-05-07T08:03:14.164Z,98642.66
2023-05-07T08:07:23.796Z,98655.09
2023-05-07T08:11:26.736Z,98651.47
2023-05-07T08:15:30.368Z,98650.03
2023-05-07T08:19:32.693Z,98658.28
2023-05-07T08:23:36.004Z,98657.03
2023-05-07T08:27:39.796Z,98660.22
2023-05-07T08:31:42.353Z,98662.91
2023-05-07T08:35:44.618Z,98664.03
2023-05-07T08:39:49.104Z,98671.78
2023-05-07T08:44:00.661Z,98669.81
2023-05-07T08:48:07.206Z,98666.28
2023-05-07T08:52:14.206Z,98659.25
2023-05-07T08:56:17.863Z,98663.13
2023-05-07T09:00:21.366Z,98660.91
2023-05-07T09:04:26.601Z,98666.75
2023-05-07T09:08:29.015Z,98666.41
2023-05-07T09:12:36.446Z,98667.69
2023-05-07T09:16:45.572Z,98668.31
2023-05-07T09:20:48.333Z,98665.16
2023-05-07T09:24:55.723Z,98661.97
2023-05-07T09:29:05.320Z,98659.06
2023-05-07T09:33:08.014Z,98660.75
2023-05-07T09:37:18.889Z,98659.28
2023-05-07T09:41:23.171Z,98660.53
2023-05-07T09:45:33.600Z,98661.09
2023-05-07T09:49:38.147Z,98648.69
2023-05-07T09:53:47.257Z,98646.75
2023-05-07T09:57:56.832Z,98646.19
2023-05-07T10:02:03.385Z,98641.56
2023-05-07T10:06:11.978Z,98640.31
2023-05-07T10:10:17.160Z,98633.66
2023-05-07T10:14:22.994Z,98621.56
2023-05-07T10:18:30.997Z,98620.22
2023-05-07T10:22:44.085Z,98618.97
2023-05-07T10:26:51.833Z,98614.19
2023-05-07T10:31:17.108Z,98611.25
2023-05-07T10:35:30.780Z,98617.16
2023-05-07T10:39:37.168Z,98613.47
2023-05-07T10:43:44.978Z,98612.34
2023-05-07T10:48:28.641Z,98613.94
2023-05-07T10:52:46.905Z,98609.44
2023-05-07T10:56:54.164Z,98609.06
2023-05-07T11:01:03.748Z,98610.50
2023-05-07T11:05:24.045Z,98604.25
2023-05-07T11:09:53.280Z,98599.88
2023-05-07T11:14:06.789Z,98601.81
2023-05-07T11:18:18.580Z,98598.22
2023-05-07T11:22:42.124Z,98595.94
2023-05-07T11:27:06.455Z,98589.25
2023-05-07T11:31:09.856Z,98592.94
2023-05-07T11:35:14.189Z,98579.31
2023-05-07T11:39:27.775Z,98580.13
2023-05-07T11:43:29.899Z,98575.69
2023-05-07T11:47:36.283Z,98573.72
2023-05-07T11:51:40.068Z,98573.00
2023-05-07T11:55:42.511Z,98568.09
2023-05-07T11:59:50.415Z,98570.28
2023-05-07T12:03:52.773Z,98563.84
2023-05-07T12:08:00.386Z,98559.44
2023-05-07T12:12:05.916Z,98558.22
2023-05-07T12:16:11.213Z,98556.78
2023-05-07T12:20:13.821Z,98563.78
2023-05-07T12:24:16.960Z,98556.16
2023-05-07T12:28:20.609Z,98560.75
2023-05-07T12:32:27.873Z,98555.44
2023-05-07T12:36:38.954Z,98557.81
2023-05-07T12:40:46.469Z,98542.44
2023-05-07T12:44:50.018Z,98541.09
2023-05-07T12:48:53.651Z,98537.94
2023-05-07T12:52:55.890Z,98531.00
2023-05-07T12:57:20.999Z,98521.81
2023-05-07T13:01:25.048Z,98522.16
2023-05-07T13:05:27.197Z,98514.44
2023-05-07T13:09:30.469Z,98510.56
2023-05-07T13:13:33.527Z,98510.25
2023-05-07T13:17:35.968Z,98513.00
2023-05-07T13:21:38.057Z,98517.78
2023-05-07T13:25:40.265Z,98517.69
2023-05-07T13:29:42.453Z,98518.28
2023-05-07T13:33:45.836Z,98509.41
2023-05-07T13:37:49.345Z,98496.31
2023-05-07T13:41:51.381Z,98504.94
2023-05-07T13:45:53.470Z,98508.19
2023-05-07T13:49:55.726Z,98503.44
2023-05-07T13:53:59.488Z,98502.75
2023-05-07T13:58:06.985Z,98497.38
2023-05-07T14:02:12.468Z,98493.56
2023-05-07T14:06:14.601Z,98494.50
2023-05-07T14:10:16.951Z,98486.41
2023-05-07T14:14:20.222Z,98491.63
2023-05-07T14:18:22.287Z,98491.31
2023-05-07T14:22:24.678Z,98492.19
2023-05-07T14:26:28.201Z,98483.72
2023-05-07T14:30:30.700Z,98487.72
2023-05-07T14:34:33.191Z,98494.13
2023-05-07T14:38:35.353Z,98484.69
2023-05-07T14:42:37.547Z,98482.50
2023-05-07T14:46:39.877Z,98481.41
2023-05-07T14:50:43.209Z,98474.78
2023-05-07T14:54:46.857Z,98468.72
2023-05-07T14:58:50.168Z,98475.47
2023-05-07T15:02:52.301Z,98479.66
2023-05-07T15:06:57.333Z,98467.81
2023-05-07T15:10:59.626Z,98466.41
2023-05-07T15:15:01.777Z,98464.44
2023-05-07T15:19:04.015Z,98466.00
2023-05-07T15:23:11.820Z,98458.53
2023-05-07T15:27:15.858Z,98464.47
2023-05-07T15:31:18.426Z,98464.81
2023-05-07T15:35:23.211Z,98466.75
2023-05-07T15:39:25.398Z,98461.50
2023-05-07T15:43:27.490Z,98469.81
2023-05-07T15:47:34.119Z,98471.47
2023-05-07T15:51:36.866Z,98477.53
2023-05-07T15:55:38.969Z,98472.94
2023-05-07T15:59:41.105Z,98479.31
2023-05-07T16:03:43.349Z,98484.56
2023-05-07T16:07:45.668Z,98475.84
2023-05-07T16:11:48.153Z,98483.16
2023-05-07T16:15:51.376Z,98478.94
2023-05-07T16:19:53.402Z,98480.13
2023-05-07T16:23:55.480Z,98473.88
2023-05-07T16:28:00.537Z,98478.94
2023-05-07T16:32:03.299Z,98470.63
2023-05-07T16:36:05.636Z,98471.56
2023-05-07T16:40:09.207Z,98468.44
2023-05-07T16:44:11.377Z,98476.69
2023-05-07T16:48:13.500Z,98477.84
2023-05-07T16:52:15.660Z,98475.56
2023-05-07T16:56:17.717Z,98466.06
2023-05-07T17:00:20.007Z,98477.59
2023-05-07T17:04:22.011Z,98473.13
2023-05-07T17:08:24.254Z,98475.63
2023-05-07T17:12:27.284Z,98468.97
2023-05-07T17:16:29.397Z,98473.16
2023-05-07T17:20:31.519Z,98470.28
2023-05-07T17:24:33.621Z,98473.09
2023-05-07T17:28:36.122Z,98482.78
2023-05-07T17:32:38.344Z,98481.75
2023-05-07T17:36:40.612Z,98491.47
2023-05-07T17:40:42.872Z,98495.25
2023-05-07T17:44:44.962Z,98496.19
2023-05-07T17:48:47.145Z,98506.00
2023-05-07T17:52:49.615Z,98509.22
2023-05-07T17:56:52.041Z,98510.88
2023-05-07T18:00:55.699Z,98509.38
2023-05-07T18:04:58.740Z,98516.50
2023-05-07T18:09:00.948Z,98514.16
2023-05-07T18:13:03.225Z,98518.06
2023-05-07T18:17:05.275Z,98518.28
2023-05-07T18:21:07.478Z,98528.97
2023-05-07T18:25:10.188Z,98525.84
2023-05-07T18:29:12.240Z,98533.16
2023-05-07T18:33:14.561Z,98536.19
2023-05-07T18:37:17.082Z,98536.41
2023-05-07T18:41:19.365Z,98530.84
2023-05-07T18:45:21.543Z,98530.66
2023-05-07T18:49:23.616Z,98534.53
2023-05-07T18:53:25.750Z,98538.59
2023-05-07T18:57:29.642Z,98549.88
2023-05-07T19:01:31.763Z,98556.53
2023-05-07T19:05:34.040Z,98551.59
2023-05-07T19:09:36.238Z,98557.56
2023-05-07T19:13:38.472Z,98560.06
2023-05-07T19:17:40.596Z,98562.19
2023-05-07T19:21:42.963Z,98565.53
2023-05-07T19:25:45.449Z,98570.78
2023-05-07T19:29:47.738Z,98563.53
2023-05-07T19:33:50.744Z,98572.44
2023-05-07T19:37:53.102Z,98581.84
2023-05-07T19:41:56.553Z,98592.41
2023-05-07T19:45:58.988Z,98593.38
2023-05-07T19:50:01.762Z,98602.38
2023-05-07T19:54:03.940Z,98605.09
2023-05-07T19:58:06.126Z,98616.50
2023-05-07T20:02:08.309Z,98614.19
2023-05-07T20:06:10.785Z,98628.19
2023-05-07T20:10:13.348Z,98620.97
2023-05-07T20:14:15.915Z,98622.53
2023-05-07T20:18:18.032Z,98630.63
2023-05-07T20:22:20.084Z,98635.66
2023-05-07T20:26:22.096Z,98642.66
2023-05-07T20:30:25.110Z,98647.06
2023-05-07T20:34:27.857Z,98646.28
2023-05-07T20:38:33.955Z,98641.34
2023-05-07T20:42:36.662Z,98646.22
2023-05-07T20:46:38.902Z,98655.31
2023-05-07T20:50:41.109Z,98653.00
2023-05-07T20:54:44.657Z,98651.34
2023-05-07T20:58:46.722Z,98659.84
2023-05-07T21:02:49.026Z,98663.06
2023-05-07T21:06:52.133Z,98663.13
2023-05-07T21:10:54.787Z,98672.13
2023-05-07T21:14:56.916Z,98682.81
2023-05-07T21:18:59.030Z,98675.53
2023-05-07T21:23:01.410Z,98672.94
2023-05-07T21:27:03.750Z,98684.13
2023-05-07T21:31:05.891Z,98683.44
2023-05-07T21:35:08.500Z,98685.84
2023-05-07T21:39:10.978Z,98678.66
2023-05-07T21:43:13.022Z,98685.66
2023-05-07T21:47:15.406Z,98681.94
2023-05-07T21:51:17.760Z,98683.94
2023-05-07T21:55:20.645Z,98686.50
2023-05-07T21:59:22.671Z,98687.22
2023-05-07T22:03:24.902Z,98684.03
2023-05-07T22:07:27.166Z,98688.00
2023-05-07T22:11:29.565Z,98691.88
2023-05-07T22:15:33.856Z,98699.59
2023-05-07T22:19:37.585Z,98703.97
2023-05-07T22:23:40.170Z,98705.84
2023-05-07T22:27:43.424Z,98702.88
2023-05-07T22:31:45.716Z,98700.25
2023-05-07T22:35:47.984Z,98693.09
2023-05-07T22:39:50.018Z,98691.03
2023-05-07T22:43:52.130Z,98689.97
2023-05-07T22:47:54.499Z,98681.81
2023-05-07T22:51:56.553Z,98683.81
2023-05-07T22:55:58.562Z,98684.88
2023-05-07T23:00:01.102Z,98687.97
2023-05-07T23:04:04.250Z,98690.03
2023-05-07T23:08:06.402Z,98676.19
2023-05-07T23:12:08.885Z,98676.66
2023-05-07T23:16:11.137Z,98680.34
2023-05-07T23:20:14.693Z,98677.41
2023-05-07T23:24:18.375Z,98675.75
2023-05-07T23:28:20.529Z,98678.81
2023-05-07T23:32:24.262Z,98684.81
2023-05-07T23:36:26.655Z,98678.66
2023-05-07T23:40:28.814Z,98670.19
2023-05-07T23:44:30.942Z,98661.03
2023-05-07T23:48:32.972Z,98663.81
2023-05-07T23:52:35.213Z,98651.06
2023-05-07T23:56:37.363Z,98653.56
